Hlavní strana
METAR-TAF:

METAR-TAF

Letiště :

Pantelleria, Itálie

zeměpisná šířka: 36-49N, zeměpisná délka: 011-58E, výška: 191 m

Aktuální stav počasí

Zpráva byla vytvořena před 10 hodinami a 32 minutami, v 16:50 UTC
Severní vítr 11 kt
Teplota 12°C
Vlhkost vzduchu 88%
Tlak 1009 hPa
Viditelnost 10 km a více
Polojasno ve výšce 1300 ft

METAR: LICG 031650Z 35011KT 9999 SCT013 12/10 Q1009

Čas: 05:22 (03:22 UTC)

Předpověď počasí

Zpráva byla vytvořena před 13 hodinami a 22 minutami, v 14:00 UTC
Předpověď platná od 03 v 15 UTC do 03 v 24 UTC
Severoseverovýchodní vítr 14 kt
Viditelnost 10 km a více
Oblačno až skoro zataženo ve výšce 2000 ft
Dočasný
od 03 v 15 UTC do 03 v 18 UTC
Viditelnost: 2000 m
Oblačno až skoro zataženo ve výšce 200 ft
déšť

TAF: LICG 031400Z 0315/0324 03014KT 9999 BKN020 TEMPO 0315/0318 2000 RA BKN002

Stav a předpovědi počasí z více než 4 000 letišť (zprávy METAR a TAF).

Červené a žluté tečky na mapě představují dostupné meteorologické stanice.

Když kurzor umístíte na tečku, zobrazí se název stanice.

Pak kliknutím zobrazíte stav a předpověď počasí.

Chcete-li změnit mapu, kliknutím na zelené tlačítko se znaménkem +mapu přiblížíte, kliknutím na zelené tlačítko se znaménkem – mapu oddálíte a kliknutím na zelené šipky přejdete na sousední mapy.


METAR-TAF: